sensor_id;sensor_type;location;lat;lon;timestamp;P1;durP1;ratioP1;P2;durP2;ratioP2
78406;SDS011;67692;51.074;-1.790;2023-09-19T00:02:02;10.70;;;1.48;;
78406;SDS011;67692;51.074;-1.790;2023-09-19T00:04:30;10.40;;;1.50;;
78406;SDS011;67692;51.074;-1.790;2023-09-19T00:06:57;14.68;;;2.05;;
78406;SDS011;67692;51.074;-1.790;2023-09-19T00:09:24;11.90;;;2.35;;
78406;SDS011;67692;51.074;-1.790;2023-09-19T00:11:52;9.93;;;1.75;;
78406;SDS011;67692;51.074;-1.790;2023-09-19T00:14:19;12.00;;;1.48;;
78406;SDS011;67692;51.074;-1.790;2023-09-19T00:19:17;8.68;;;1.42;;
78406;SDS011;67692;51.074;-1.790;2023-09-19T00:21:43;11.07;;;1.60;;
78406;SDS011;67692;51.074;-1.790;2023-09-19T00:24:10;9.15;;;1.77;;
78406;SDS011;67692;51.074;-1.790;2023-09-19T00:26:38;7.72;;;1.42;;
78406;SDS011;67692;51.074;-1.790;2023-09-19T00:29:04;9.85;;;1.77;;
78406;SDS011;67692;51.074;-1.790;2023-09-19T00:31:33;12.77;;;1.50;;
78406;SDS011;67692;51.074;-1.790;2023-09-19T00:34:02;13.63;;;1.92;;
78406;SDS011;67692;51.074;-1.790;2023-09-19T00:36:36;15.15;;;1.67;;
78406;SDS011;67692;51.074;-1.790;2023-09-19T00:39:04;11.82;;;1.60;;
78406;SDS011;67692;51.074;-1.790;2023-09-19T00:41:31;8.13;;;1.60;;
78406;SDS011;67692;51.074;-1.790;2023-09-19T00:44:00;9.30;;;1.73;;
78406;SDS011;67692;51.074;-1.790;2023-09-19T00:46:27;9.98;;;1.40;;
78406;SDS011;67692;51.074;-1.790;2023-09-19T00:48:54;11.40;;;1.33;;
78406;SDS011;67692;51.074;-1.790;2023-09-19T00:51:22;8.07;;;1.50;;
78406;SDS011;67692;51.074;-1.790;2023-09-19T00:53:51;10.45;;;1.58;;
78406;SDS011;67692;51.074;-1.790;2023-09-19T00:56:18;9.32;;;1.67;;
78406;SDS011;67692;51.074;-1.790;2023-09-19T00:58:45;13.05;;;1.58;;
78406;SDS011;67692;51.074;-1.790;2023-09-19T01:01:12;8.38;;;1.83;;
78406;SDS011;67692;51.074;-1.790;2023-09-19T01:03:40;11.65;;;1.83;;
78406;SDS011;67692;51.074;-1.790;2023-09-19T01:06:07;11.15;;;1.55;;
78406;SDS011;67692;51.074;-1.790;2023-09-19T01:08:34;7.13;;;1.15;;
78406;SDS011;67692;51.074;-1.790;2023-09-19T01:11:06;9.82;;;1.40;;
78406;SDS011;67692;51.074;-1.790;2023-09-19T01:13:42;9.27;;;1.83;;
78406;SDS011;67692;51.074;-1.790;2023-09-19T01:16:19;11.70;;;1.13;;
78406;SDS011;67692;51.074;-1.790;2023-09-19T01:19:00;9.93;;;1.60;;
78406;SDS011;67692;51.074;-1.790;2023-09-19T01:21:35;8.95;;;1.25;;
78406;SDS011;67692;51.074;-1.790;2023-09-19T01:24:22;13.18;;;1.63;;
78406;SDS011;67692;51.074;-1.790;2023-09-19T01:27:15;9.15;;;1.10;;
78406;SDS011;67692;51.074;-1.790;2023-09-19T01:29:51;14.68;;;1.55;;
78406;SDS011;67692;51.074;-1.790;2023-09-19T01:32:20;9.52;;;1.42;;
78406;SDS011;67692;51.074;-1.790;2023-09-19T01:34:50;8.77;;;1.40;;
78406;SDS011;67692;51.074;-1.790;2023-09-19T01:37:21;8.90;;;1.42;;
78406;SDS011;67692;51.074;-1.790;2023-09-19T01:39:52;10.40;;;1.40;;
78406;SDS011;67692;51.074;-1.790;2023-09-19T01:42:23;12.52;;;1.60;;
78406;SDS011;67692;51.074;-1.790;2023-09-19T01:44:59;8.85;;;1.30;;
78406;SDS011;67692;51.074;-1.790;2023-09-19T01:47:35;9.35;;;1.25;;
78406;SDS011;67692;51.074;-1.790;2023-09-19T01:50:11;10.80;;;1.45;;
78406;SDS011;67692;51.074;-1.790;2023-09-19T01:52:46;6.40;;;1.38;;
78406;SDS011;67692;51.074;-1.790;2023-09-19T01:55:15;8.32;;;1.10;;
78406;SDS011;67692;51.074;-1.790;2023-09-19T01:57:47;9.40;;;1.67;;
78406;SDS011;67692;51.074;-1.790;2023-09-19T02:00:19;11.95;;;1.50;;
78406;SDS011;67692;51.074;-1.790;2023-09-19T02:02:50;8.05;;;1.50;;
78406;SDS011;67692;51.074;-1.790;2023-09-19T02:05:24;9.55;;;1.48;;
78406;SDS011;67692;51.074;-1.790;2023-09-19T02:07:51;9.45;;;1.40;;
78406;SDS011;67692;51.074;-1.790;2023-09-19T02:10:19;8.13;;;1.25;;
78406;SDS011;67692;51.074;-1.790;2023-09-19T02:12:45;11.65;;;1.55;;
78406;SDS011;67692;51.074;-1.790;2023-09-19T02:15:12;11.85;;;1.75;;
78406;SDS011;67692;51.074;-1.790;2023-09-19T02:17:41;11.85;;;1.60;;
78406;SDS011;67692;51.074;-1.790;2023-09-19T02:20:09;11.93;;;1.77;;
78406;SDS011;67692;51.074;-1.790;2023-09-19T02:22:40;10.40;;;1.38;;
78406;SDS011;67692;51.074;-1.790;2023-09-19T02:25:07;6.43;;;1.30;;
78406;SDS011;67692;51.074;-1.790;2023-09-19T02:27:34;12.98;;;1.83;;
78406;SDS011;67692;51.074;-1.790;2023-09-19T02:30:01;11.95;;;2.30;;
78406;SDS011;67692;51.074;-1.790;2023-09-19T02:32:28;7.32;;;0.93;;
78406;SDS011;67692;51.074;-1.790;2023-09-19T02:34:56;13.70;;;1.60;;
78406;SDS011;67692;51.074;-1.790;2023-09-19T02:37:25;8.07;;;1.05;;
78406;SDS011;67692;51.074;-1.790;2023-09-19T02:39:51;7.18;;;1.45;;
78406;SDS011;67692;51.074;-1.790;2023-09-19T02:42:18;6.50;;;1.20;;
78406;SDS011;67692;51.074;-1.790;2023-09-19T02:44:45;7.60;;;1.20;;
78406;SDS011;67692;51.074;-1.790;2023-09-19T02:47:13;11.02;;;1.38;;
78406;SDS011;67692;51.074;-1.790;2023-09-19T02:49:41;10.80;;;2.25;;
78406;SDS011;67692;51.074;-1.790;2023-09-19T02:52:08;11.32;;;1.48;;
78406;SDS011;67692;51.074;-1.790;2023-09-19T02:54:37;10.15;;;1.13;;
78406;SDS011;67692;51.074;-1.790;2023-09-19T02:57:04;12.10;;;1.48;;
78406;SDS011;67692;51.074;-1.790;2023-09-19T02:59:32;9.65;;;1.10;;
78406;SDS011;67692;51.074;-1.790;2023-09-19T03:01:59;7.63;;;1.13;;
78406;SDS011;67692;51.074;-1.790;2023-09-19T03:04:28;8.07;;;1.10;;
78406;SDS011;67692;51.074;-1.790;2023-09-19T03:06:56;10.23;;;1.27;;
78406;SDS011;67692;51.074;-1.790;2023-09-19T03:09:25;13.25;;;1.40;;
78406;SDS011;67692;51.074;-1.790;2023-09-19T03:11:53;9.20;;;1.58;;
78406;SDS011;67692;51.074;-1.790;2023-09-19T03:14:20;6.93;;;0.93;;
78406;SDS011;67692;51.074;-1.790;2023-09-19T03:16:48;9.80;;;1.40;;
78406;SDS011;67692;51.074;-1.790;2023-09-19T03:19:15;8.15;;;0.90;;
78406;SDS011;67692;51.074;-1.790;2023-09-19T03:21:42;11.25;;;1.48;;
78406;SDS011;67692;51.074;-1.790;2023-09-19T03:24:08;6.57;;;1.02;;
78406;SDS011;67692;51.074;-1.790;2023-09-19T03:26:36;7.53;;;1.10;;
78406;SDS011;67692;51.074;-1.790;2023-09-19T03:29:04;8.57;;;1.17;;
78406;SDS011;67692;51.074;-1.790;2023-09-19T03:31:33;7.20;;;1.27;;
78406;SDS011;67692;51.074;-1.790;2023-09-19T03:34:01;11.55;;;1.30;;
78406;SDS011;67692;51.074;-1.790;2023-09-19T03:36:29;9.90;;;0.98;;
78406;SDS011;67692;51.074;-1.790;2023-09-19T03:38:55;8.80;;;1.30;;
78406;SDS011;67692;51.074;-1.790;2023-09-19T03:41:22;9.73;;;1.08;;
78406;SDS011;67692;51.074;-1.790;2023-09-19T03:43:49;14.02;;;1.85;;
78406;SDS011;67692;51.074;-1.790;2023-09-19T03:46:17;8.73;;;1.60;;
78406;SDS011;67692;51.074;-1.790;2023-09-19T03:48:43;9.00;;;1.10;;
78406;SDS011;67692;51.074;-1.790;2023-09-19T03:51:10;6.38;;;0.90;;
78406;SDS011;67692;51.074;-1.790;2023-09-19T03:53:37;8.13;;;1.35;;
78406;SDS011;67692;51.074;-1.790;2023-09-19T03:56:03;12.07;;;1.30;;
78406;SDS011;67692;51.074;-1.790;2023-09-19T03:58:30;11.20;;;1.73;;
78406;SDS011;67692;51.074;-1.790;2023-09-19T04:00:57;13.73;;;1.20;;
78406;SDS011;67692;51.074;-1.790;2023-09-19T04:03:25;7.10;;;0.73;;
78406;SDS011;67692;51.074;-1.790;2023-09-19T04:05:59;9.43;;;1.02;;
78406;SDS011;67692;51.074;-1.790;2023-09-19T04:08:26;8.48;;;1.25;;
78406;SDS011;67692;51.074;-1.790;2023-09-19T04:10:53;7.18;;;0.93;;
78406;SDS011;67692;51.074;-1.790;2023-09-19T04:13:20;7.47;;;0.80;;
78406;SDS011;67692;51.074;-1.790;2023-09-19T04:15:47;6.95;;;1.40;;
78406;SDS011;67692;51.074;-1.790;2023-09-19T04:18:13;9.82;;;1.20;;
78406;SDS011;67692;51.074;-1.790;2023-09-19T04:20:41;11.52;;;1.30;;
78406;SDS011;67692;51.074;-1.790;2023-09-19T04:23:14;9.50;;;1.65;;
78406;SDS011;67692;51.074;-1.790;2023-09-19T04:25:40;9.50;;;1.00;;
78406;SDS011;67692;51.074;-1.790;2023-09-19T04:28:07;12.27;;;1.55;;
78406;SDS011;67692;51.074;-1.790;2023-09-19T04:30:35;9.57;;;0.95;;
78406;SDS011;67692;51.074;-1.790;2023-09-19T04:33:02;5.28;;;0.60;;
78406;SDS011;67692;51.074;-1.790;2023-09-19T04:35:30;10.73;;;1.00;;
78406;SDS011;67692;51.074;-1.790;2023-09-19T04:37:58;7.38;;;1.38;;
78406;SDS011;67692;51.074;-1.790;2023-09-19T04:40:25;6.57;;;1.02;;
78406;SDS011;67692;51.074;-1.790;2023-09-19T04:43:05;8.32;;;1.13;;
78406;SDS011;67692;51.074;-1.790;2023-09-19T04:45:32;11.38;;;1.75;;
78406;SDS011;67692;51.074;-1.790;2023-09-19T04:48:04;5.53;;;0.90;;
78406;SDS011;67692;51.074;-1.790;2023-09-19T04:50:33;8.35;;;0.98;;
78406;SDS011;67692;51.074;-1.790;2023-09-19T04:53:03;6.72;;;1.00;;
78406;SDS011;67692;51.074;-1.790;2023-09-19T04:55:30;4.95;;;0.90;;
78406;SDS011;67692;51.074;-1.790;2023-09-19T04:57:58;10.60;;;1.88;;
78406;SDS011;67692;51.074;-1.790;2023-09-19T05:00:24;7.47;;;1.20;;
78406;SDS011;67692;51.074;-1.790;2023-09-19T05:02:54;12.68;;;1.60;;
78406;SDS011;67692;51.074;-1.790;2023-09-19T05:05:22;5.45;;;1.00;;
78406;SDS011;67692;51.074;-1.790;2023-09-19T05:07:50;8.23;;;0.90;;
78406;SDS011;67692;51.074;-1.790;2023-09-19T05:10:20;6.57;;;1.75;;
78406;SDS011;67692;51.074;-1.790;2023-09-19T05:12:47;11.27;;;1.20;;
78406;SDS011;67692;51.074;-1.790;2023-09-19T05:15:16;8.18;;;1.20;;
78406;SDS011;67692;51.074;-1.790;2023-09-19T05:17:47;8.48;;;0.95;;
78406;SDS011;67692;51.074;-1.790;2023-09-19T05:20:14;8.38;;;0.98;;
78406;SDS011;67692;51.074;-1.790;2023-09-19T05:22:49;10.23;;;1.45;;
78406;SDS011;67692;51.074;-1.790;2023-09-19T05:25:16;8.60;;;1.17;;
78406;SDS011;67692;51.074;-1.790;2023-09-19T05:27:44;10.77;;;1.30;;
78406;SDS011;67692;51.074;-1.790;2023-09-19T05:30:11;8.80;;;1.55;;
78406;SDS011;67692;51.074;-1.790;2023-09-19T05:32:40;11.02;;;1.35;;
78406;SDS011;67692;51.074;-1.790;2023-09-19T05:35:09;6.57;;;0.90;;
78406;SDS011;67692;51.074;-1.790;2023-09-19T05:37:38;8.60;;;1.33;;
78406;SDS011;67692;51.074;-1.790;2023-09-19T05:40:05;9.95;;;1.27;;
78406;SDS011;67692;51.074;-1.790;2023-09-19T05:42:35;9.32;;;1.73;;
78406;SDS011;67692;51.074;-1.790;2023-09-19T05:45:04;8.52;;;1.30;;
78406;SDS011;67692;51.074;-1.790;2023-09-19T05:47:32;7.43;;;1.25;;
78406;SDS011;67692;51.074;-1.790;2023-09-19T05:49:59;5.65;;;1.63;;
78406;SDS011;67692;51.074;-1.790;2023-09-19T05:52:26;7.05;;;1.17;;
78406;SDS011;67692;51.074;-1.790;2023-09-19T05:54:52;8.52;;;1.33;;
78406;SDS011;67692;51.074;-1.790;2023-09-19T05:57:19;6.43;;;1.23;;
78406;SDS011;67692;51.074;-1.790;2023-09-19T05:59:47;7.35;;;1.25;;
78406;SDS011;67692;51.074;-1.790;2023-09-19T06:02:17;6.65;;;0.90;;
78406;SDS011;67692;51.074;-1.790;2023-09-19T06:04:45;11.55;;;1.80;;
78406;SDS011;67692;51.074;-1.790;2023-09-19T06:07:11;7.88;;;1.10;;
78406;SDS011;67692;51.074;-1.790;2023-09-19T06:09:38;8.65;;;1.60;;
78406;SDS011;67692;51.074;-1.790;2023-09-19T06:12:05;7.50;;;1.58;;
78406;SDS011;67692;51.074;-1.790;2023-09-19T06:14:32;13.13;;;1.75;;
78406;SDS011;67692;51.074;-1.790;2023-09-19T06:16:59;13.65;;;1.55;;
78406;SDS011;67692;51.074;-1.790;2023-09-19T06:19:27;9.05;;;1.75;;
78406;SDS011;67692;51.074;-1.790;2023-09-19T06:21:54;11.32;;;1.30;;
78406;SDS011;67692;51.074;-1.790;2023-09-19T06:24:21;13.02;;;1.50;;
78406;SDS011;67692;51.074;-1.790;2023-09-19T06:26:47;9.18;;;1.45;;
78406;SDS011;67692;51.074;-1.790;2023-09-19T06:29:14;10.18;;;2.03;;
78406;SDS011;67692;51.074;-1.790;2023-09-19T06:31:41;14.45;;;2.35;;
78406;SDS011;67692;51.074;-1.790;2023-09-19T06:34:09;7.75;;;1.33;;
78406;SDS011;67692;51.074;-1.790;2023-09-19T06:36:37;10.98;;;1.70;;
78406;SDS011;67692;51.074;-1.790;2023-09-19T06:39:04;9.82;;;1.52;;
78406;SDS011;67692;51.074;-1.790;2023-09-19T06:41:31;13.52;;;2.33;;
78406;SDS011;67692;51.074;-1.790;2023-09-19T06:43:58;13.35;;;2.67;;
78406;SDS011;67692;51.074;-1.790;2023-09-19T06:46:25;11.85;;;1.90;;
78406;SDS011;67692;51.074;-1.790;2023-09-19T06:48:57;10.13;;;1.90;;
78406;SDS011;67692;51.074;-1.790;2023-09-19T06:51:24;19.42;;;1.90;;
78406;SDS011;67692;51.074;-1.790;2023-09-19T06:53:52;11.00;;;1.73;;
78406;SDS011;67692;51.074;-1.790;2023-09-19T06:56:19;13.70;;;2.03;;
78406;SDS011;67692;51.074;-1.790;2023-09-19T06:58:49;17.58;;;2.67;;
78406;SDS011;67692;51.074;-1.790;2023-09-19T07:01:16;13.20;;;2.20;;
78406;SDS011;67692;51.074;-1.790;2023-09-19T07:03:43;14.38;;;2.25;;
78406;SDS011;67692;51.074;-1.790;2023-09-19T07:06:10;8.52;;;1.50;;
78406;SDS011;67692;51.074;-1.790;2023-09-19T07:08:37;9.77;;;1.85;;
78406;SDS011;67692;51.074;-1.790;2023-09-19T07:11:06;9.05;;;1.90;;
78406;SDS011;67692;51.074;-1.790;2023-09-19T07:13:32;8.77;;;1.95;;
78406;SDS011;67692;51.074;-1.790;2023-09-19T07:16:00;13.40;;;2.28;;
78406;SDS011;67692;51.074;-1.790;2023-09-19T07:18:26;13.10;;;2.25;;
78406;SDS011;67692;51.074;-1.790;2023-09-19T07:20:56;12.88;;;2.20;;
78406;SDS011;67692;51.074;-1.790;2023-09-19T07:23:26;18.73;;;2.90;;
78406;SDS011;67692;51.074;-1.790;2023-09-19T07:25:56;10.10;;;2.67;;
78406;SDS011;67692;51.074;-1.790;2023-09-19T07:28:25;16.77;;;3.65;;
78406;SDS011;67692;51.074;-1.790;2023-09-19T07:30:53;12.15;;;2.28;;
78406;SDS011;67692;51.074;-1.790;2023-09-19T07:33:19;17.60;;;2.25;;
78406;SDS011;67692;51.074;-1.790;2023-09-19T07:35:46;15.43;;;2.50;;
78406;SDS011;67692;51.074;-1.790;2023-09-19T07:38:13;16.60;;;2.53;;
78406;SDS011;67692;51.074;-1.790;2023-09-19T07:40:40;13.48;;;2.95;;
78406;SDS011;67692;51.074;-1.790;2023-09-19T07:43:06;17.33;;;2.72;;
78406;SDS011;67692;51.074;-1.790;2023-09-19T07:45:35;13.02;;;3.63;;
78406;SDS011;67692;51.074;-1.790;2023-09-19T07:48:02;13.88;;;3.13;;
78406;SDS011;67692;51.074;-1.790;2023-09-19T07:50:33;15.70;;;2.22;;
78406;SDS011;67692;51.074;-1.790;2023-09-19T07:53:01;10.50;;;2.85;;
78406;SDS011;67692;51.074;-1.790;2023-09-19T07:55:30;13.48;;;3.03;;
78406;SDS011;67692;51.074;-1.790;2023-09-19T07:57:59;15.85;;;2.10;;
78406;SDS011;67692;51.074;-1.790;2023-09-19T08:00:25;11.10;;;2.72;;
78406;SDS011;67692;51.074;-1.790;2023-09-19T08:02:53;14.50;;;2.97;;
78406;SDS011;67692;51.074;-1.790;2023-09-19T08:05:20;12.80;;;2.22;;
78406;SDS011;67692;51.074;-1.790;2023-09-19T08:07:47;14.27;;;2.55;;
78406;SDS011;67692;51.074;-1.790;2023-09-19T08:10:14;13.55;;;2.70;;
78406;SDS011;67692;51.074;-1.790;2023-09-19T08:12:44;19.58;;;2.88;;
78406;SDS011;67692;51.074;-1.790;2023-09-19T08:15:12;16.80;;;2.75;;
78406;SDS011;67692;51.074;-1.790;2023-09-19T08:17:42;11.52;;;2.25;;
78406;SDS011;67692;51.074;-1.790;2023-09-19T08:20:11;13.35;;;2.53;;
78406;SDS011;67692;51.074;-1.790;2023-09-19T08:22:42;15.23;;;2.70;;
78406;SDS011;67692;51.074;-1.790;2023-09-19T08:25:11;14.48;;;2.30;;
78406;SDS011;67692;51.074;-1.790;2023-09-19T08:27:38;25.25;;;4.03;;
78406;SDS011;67692;51.074;-1.790;2023-09-19T08:30:05;19.98;;;4.00;;
78406;SDS011;67692;51.074;-1.790;2023-09-19T08:32:32;15.80;;;3.45;;
78406;SDS011;67692;51.074;-1.790;2023-09-19T08:34:59;19.13;;;3.00;;
78406;SDS011;67692;51.074;-1.790;2023-09-19T08:37:27;15.98;;;3.10;;
78406;SDS011;67692;51.074;-1.790;2023-09-19T08:39:54;18.38;;;3.38;;
78406;SDS011;67692;51.074;-1.790;2023-09-19T08:42:20;21.90;;;3.70;;
78406;SDS011;67692;51.074;-1.790;2023-09-19T08:44:50;27.80;;;3.63;;
78406;SDS011;67692;51.074;-1.790;2023-09-19T08:47:19;24.17;;;4.68;;
78406;SDS011;67692;51.074;-1.790;2023-09-19T08:50:01;16.42;;;3.67;;
78406;SDS011;67692;51.074;-1.790;2023-09-19T08:52:41;13.85;;;3.53;;
78406;SDS011;67692;51.074;-1.790;2023-09-19T08:55:10;17.80;;;3.42;;
78406;SDS011;67692;51.074;-1.790;2023-09-19T08:57:38;18.77;;;3.78;;
78406;SDS011;67692;51.074;-1.790;2023-09-19T09:00:14;15.30;;;3.08;;
78406;SDS011;67692;51.074;-1.790;2023-09-19T09:02:42;15.35;;;3.85;;
78406;SDS011;67692;51.074;-1.790;2023-09-19T09:05:10;21.25;;;4.45;;
78406;SDS011;67692;51.074;-1.790;2023-09-19T09:07:37;23.92;;;4.43;;
78406;SDS011;67692;51.074;-1.790;2023-09-19T09:10:06;14.25;;;3.22;;
78406;SDS011;67692;51.074;-1.790;2023-09-19T09:12:34;16.42;;;3.20;;
78406;SDS011;67692;51.074;-1.790;2023-09-19T09:15:05;19.35;;;3.22;;
78406;SDS011;67692;51.074;-1.790;2023-09-19T09:17:33;21.40;;;3.67;;
78406;SDS011;67692;51.074;-1.790;2023-09-19T09:20:00;21.02;;;3.58;;
78406;SDS011;67692;51.074;-1.790;2023-09-19T09:22:27;20.63;;;4.65;;
78406;SDS011;67692;51.074;-1.790;2023-09-19T09:24:56;14.57;;;2.92;;
78406;SDS011;67692;51.074;-1.790;2023-09-19T09:27:23;15.45;;;3.83;;
78406;SDS011;67692;51.074;-1.790;2023-09-19T09:29:50;16.58;;;2.95;;
78406;SDS011;67692;51.074;-1.790;2023-09-19T09:32:20;22.10;;;4.13;;
78406;SDS011;67692;51.074;-1.790;2023-09-19T09:34:48;19.73;;;4.10;;
78406;SDS011;67692;51.074;-1.790;2023-09-19T09:37:17;14.98;;;2.95;;
78406;SDS011;67692;51.074;-1.790;2023-09-19T09:39:55;21.45;;;3.80;;
78406;SDS011;67692;51.074;-1.790;2023-09-19T09:42:28;14.25;;;2.97;;
78406;SDS011;67692;51.074;-1.790;2023-09-19T09:45:12;16.27;;;3.25;;
78406;SDS011;67692;51.074;-1.790;2023-09-19T09:47:42;17.38;;;2.95;;
78406;SDS011;67692;51.074;-1.790;2023-09-19T09:50:25;15.90;;;2.97;;
78406;SDS011;67692;51.074;-1.790;2023-09-19T09:53:05;13.90;;;2.60;;
78406;SDS011;67692;51.074;-1.790;2023-09-19T09:56:00;17.80;;;2.90;;
78406;SDS011;67692;51.074;-1.790;2023-09-19T09:58:31;15.45;;;2.75;;
78406;SDS011;67692;51.074;-1.790;2023-09-19T10:00:58;17.10;;;3.50;;
78406;SDS011;67692;51.074;-1.790;2023-09-19T10:03:32;15.60;;;3.00;;
78406;SDS011;67692;51.074;-1.790;2023-09-19T10:06:03;14.35;;;2.90;;
78406;SDS011;67692;51.074;-1.790;2023-09-19T10:08:57;14.85;;;3.42;;
78406;SDS011;67692;51.074;-1.790;2023-09-19T10:11:29;16.52;;;2.50;;
78406;SDS011;67692;51.074;-1.790;2023-09-19T10:13:55;20.08;;;3.38;;
78406;SDS011;67692;51.074;-1.790;2023-09-19T10:16:23;12.40;;;3.20;;
78406;SDS011;67692;51.074;-1.790;2023-09-19T10:18:51;13.90;;;2.90;;
78406;SDS011;67692;51.074;-1.790;2023-09-19T10:21:23;10.02;;;2.60;;
78406;SDS011;67692;51.074;-1.790;2023-09-19T10:23:50;12.40;;;2.55;;
78406;SDS011;67692;51.074;-1.790;2023-09-19T10:26:21;18.20;;;2.58;;
78406;SDS011;67692;51.074;-1.790;2023-09-19T10:28:50;15.60;;;2.55;;
78406;SDS011;67692;51.074;-1.790;2023-09-19T10:31:20;16.55;;;2.70;;
78406;SDS011;67692;51.074;-1.790;2023-09-19T10:33:51;12.68;;;2.17;;
78406;SDS011;67692;51.074;-1.790;2023-09-19T10:36:20;18.08;;;2.38;;
78406;SDS011;67692;51.074;-1.790;2023-09-19T10:38:50;17.10;;;2.45;;
78406;SDS011;67692;51.074;-1.790;2023-09-19T10:41:21;11.55;;;2.35;;
78406;SDS011;67692;51.074;-1.790;2023-09-19T10:43:48;12.60;;;2.05;;
78406;SDS011;67692;51.074;-1.790;2023-09-19T10:46:20;12.90;;;2.17;;
78406;SDS011;67692;51.074;-1.790;2023-09-19T10:48:47;14.80;;;2.42;;
78406;SDS011;67692;51.074;-1.790;2023-09-19T10:51:15;10.95;;;2.88;;
78406;SDS011;67692;51.074;-1.790;2023-09-19T10:53:49;11.88;;;2.42;;
78406;SDS011;67692;51.074;-1.790;2023-09-19T10:56:19;11.65;;;2.42;;
78406;SDS011;67692;51.074;-1.790;2023-09-19T10:58:53;10.82;;;2.40;;
78406;SDS011;67692;51.074;-1.790;2023-09-19T11:01:42;11.35;;;2.58;;
78406;SDS011;67692;51.074;-1.790;2023-09-19T11:04:20;11.88;;;2.30;;
78406;SDS011;67692;51.074;-1.790;2023-09-19T11:06:58;12.60;;;2.50;;
78406;SDS011;67692;51.074;-1.790;2023-09-19T11:09:42;11.68;;;2.40;;
78406;SDS011;67692;51.074;-1.790;2023-09-19T11:12:11;11.27;;;2.28;;
78406;SDS011;67692;51.074;-1.790;2023-09-19T11:14:39;10.25;;;2.22;;
78406;SDS011;67692;51.074;-1.790;2023-09-19T11:25:43;11.43;;;2.35;;
78406;SDS011;67692;51.074;-1.790;2023-09-19T11:28:31;14.27;;;3.25;;
78406;SDS011;67692;51.074;-1.790;2023-09-19T11:37:02;11.30;;;2.10;;
78406;SDS011;67692;51.074;-1.790;2023-09-19T11:39:29;9.88;;;2.35;;
78406;SDS011;67692;51.074;-1.790;2023-09-19T11:41:58;7.47;;;2.47;;
78406;SDS011;67692;51.074;-1.790;2023-09-19T11:44:32;10.25;;;2.25;;
78406;SDS011;67692;51.074;-1.790;2023-09-19T11:47:02;17.20;;;2.80;;
78406;SDS011;67692;51.074;-1.790;2023-09-19T11:49:29;11.60;;;2.00;;
78406;SDS011;67692;51.074;-1.790;2023-09-19T11:51:57;11.05;;;1.90;;
78406;SDS011;67692;51.074;-1.790;2023-09-19T11:54:28;10.85;;;2.35;;
78406;SDS011;67692;51.074;-1.790;2023-09-19T11:56:56;8.43;;;2.00;;
78406;SDS011;67692;51.074;-1.790;2023-09-19T11:59:24;13.07;;;2.17;;
78406;SDS011;67692;51.074;-1.790;2023-09-19T12:01:54;10.48;;;1.80;;
78406;SDS011;67692;51.074;-1.790;2023-09-19T12:04:29;12.27;;;2.20;;
78406;SDS011;67692;51.074;-1.790;2023-09-19T12:07:02;7.90;;;1.63;;
78406;SDS011;67692;51.074;-1.790;2023-09-19T12:09:32;8.07;;;1.75;;
78406;SDS011;67692;51.074;-1.790;2023-09-19T12:11:58;13.43;;;1.90;;
78406;SDS011;67692;51.074;-1.790;2023-09-19T12:14:25;12.27;;;2.25;;
78406;SDS011;67692;51.074;-1.790;2023-09-19T12:16:53;14.15;;;2.90;;
78406;SDS011;67692;51.074;-1.790;2023-09-19T12:19:21;10.20;;;1.92;;
78406;SDS011;67692;51.074;-1.790;2023-09-19T12:21:55;8.63;;;1.70;;
78406;SDS011;67692;51.074;-1.790;2023-09-19T12:24:24;9.40;;;2.22;;
78406;SDS011;67692;51.074;-1.790;2023-09-19T12:26:59;9.07;;;1.80;;
78406;SDS011;67692;51.074;-1.790;2023-09-19T12:29:26;13.93;;;1.90;;
78406;SDS011;67692;51.074;-1.790;2023-09-19T12:31:55;13.57;;;2.50;;
78406;SDS011;67692;51.074;-1.790;2023-09-19T12:34:23;9.55;;;2.13;;
78406;SDS011;67692;51.074;-1.790;2023-09-19T12:37:05;14.27;;;2.28;;
78406;SDS011;67692;51.074;-1.790;2023-09-19T12:39:41;13.20;;;2.05;;
78406;SDS011;67692;51.074;-1.790;2023-09-19T12:42:13;10.98;;;1.83;;
78406;SDS011;67692;51.074;-1.790;2023-09-19T12:44:40;17.58;;;2.70;;
78406;SDS011;67692;51.074;-1.790;2023-09-19T12:47:12;11.02;;;2.50;;
78406;SDS011;67692;51.074;-1.790;2023-09-19T12:52:38;9.00;;;2.20;;
78406;SDS011;67692;51.074;-1.790;2023-09-19T12:55:05;10.95;;;2.30;;
78406;SDS011;67692;51.074;-1.790;2023-09-19T12:57:37;19.38;;;2.90;;
78406;SDS011;67692;51.074;-1.790;2023-09-19T13:00:04;9.77;;;2.55;;
78406;SDS011;67692;51.074;-1.790;2023-09-19T13:02:32;14.50;;;2.17;;
78406;SDS011;67692;51.074;-1.790;2023-09-19T13:04:59;11.52;;;2.20;;
78406;SDS011;67692;51.074;-1.790;2023-09-19T13:07:41;12.20;;;1.95;;
78406;SDS011;67692;51.074;-1.790;2023-09-19T13:10:10;13.18;;;2.22;;
78406;SDS011;67692;51.074;-1.790;2023-09-19T13:15:12;9.80;;;2.55;;
78406;SDS011;67692;51.074;-1.790;2023-09-19T13:17:43;16.98;;;2.72;;
78406;SDS011;67692;51.074;-1.790;2023-09-19T13:20:20;9.68;;;2.70;;
78406;SDS011;67692;51.074;-1.790;2023-09-19T13:22:49;12.27;;;2.42;;
78406;SDS011;67692;51.074;-1.790;2023-09-19T13:25:19;10.75;;;1.88;;
78406;SDS011;67692;51.074;-1.790;2023-09-19T13:27:48;12.48;;;2.10;;
78406;SDS011;67692;51.074;-1.790;2023-09-19T13:30:17;6.05;;;1.70;;
78406;SDS011;67692;51.074;-1.790;2023-09-19T13:32:44;10.32;;;2.20;;
78406;SDS011;67692;51.074;-1.790;2023-09-19T13:35:12;14.23;;;2.75;;
78406;SDS011;67692;51.074;-1.790;2023-09-19T13:37:40;16.88;;;2.42;;
78406;SDS011;67692;51.074;-1.790;2023-09-19T13:40:08;12.13;;;2.20;;
78406;SDS011;67692;51.074;-1.790;2023-09-19T13:42:35;20.02;;;2.25;;
78406;SDS011;67692;51.074;-1.790;2023-09-19T13:45:04;20.73;;;3.45;;
78406;SDS011;67692;51.074;-1.790;2023-09-19T13:47:31;10.57;;;1.98;;
78406;SDS011;67692;51.074;-1.790;2023-09-19T13:49:59;14.23;;;2.65;;
78406;SDS011;67692;51.074;-1.790;2023-09-19T13:52:26;12.18;;;2.05;;
78406;SDS011;67692;51.074;-1.790;2023-09-19T13:54:54;13.50;;;2.13;;
78406;SDS011;67692;51.074;-1.790;2023-09-19T13:57:21;18.00;;;2.72;;
78406;SDS011;67692;51.074;-1.790;2023-09-19T13:59:48;13.30;;;1.95;;
78406;SDS011;67692;51.074;-1.790;2023-09-19T14:02:16;12.15;;;2.30;;
78406;SDS011;67692;51.074;-1.790;2023-09-19T14:04:43;13.15;;;2.42;;
78406;SDS011;67692;51.074;-1.790;2023-09-19T14:07:10;14.95;;;2.85;;
78406;SDS011;67692;51.074;-1.790;2023-09-19T14:09:37;6.13;;;1.75;;
78406;SDS011;67692;51.074;-1.790;2023-09-19T14:12:04;12.50;;;2.63;;
78406;SDS011;67692;51.074;-1.790;2023-09-19T14:14:31;10.38;;;2.30;;
78406;SDS011;67692;51.074;-1.790;2023-09-19T14:16:58;17.58;;;2.30;;
78406;SDS011;67692;51.074;-1.790;2023-09-19T14:19:27;12.73;;;2.83;;
78406;SDS011;67692;51.074;-1.790;2023-09-19T14:21:53;11.82;;;2.13;;
78406;SDS011;67692;51.074;-1.790;2023-09-19T14:24:21;10.43;;;2.15;;
78406;SDS011;67692;51.074;-1.790;2023-09-19T14:26:48;10.57;;;2.03;;
78406;SDS011;67692;51.074;-1.790;2023-09-19T14:29:15;10.25;;;2.00;;
78406;SDS011;67692;51.074;-1.790;2023-09-19T14:31:42;11.93;;;2.30;;
78406;SDS011;67692;51.074;-1.790;2023-09-19T14:34:09;13.55;;;2.78;;
78406;SDS011;67692;51.074;-1.790;2023-09-19T14:36:37;10.25;;;2.20;;
78406;SDS011;67692;51.074;-1.790;2023-09-19T14:39:05;13.35;;;2.17;;
78406;SDS011;67692;51.074;-1.790;2023-09-19T14:41:33;12.07;;;2.33;;
78406;SDS011;67692;51.074;-1.790;2023-09-19T14:44:01;13.70;;;2.10;;
78406;SDS011;67692;51.074;-1.790;2023-09-19T14:46:28;15.38;;;2.75;;
78406;SDS011;67692;51.074;-1.790;2023-09-19T14:48:56;10.00;;;1.92;;
78406;SDS011;67692;51.074;-1.790;2023-09-19T14:51:24;10.70;;;1.70;;
78406;SDS011;67692;51.074;-1.790;2023-09-19T14:53:52;12.95;;;2.78;;
78406;SDS011;67692;51.074;-1.790;2023-09-19T14:56:19;11.25;;;1.90;;
78406;SDS011;67692;51.074;-1.790;2023-09-19T14:58:47;10.73;;;2.00;;
78406;SDS011;67692;51.074;-1.790;2023-09-19T15:01:13;15.27;;;2.33;;